SBCG/CGR METAR and TAF weather

Enter ICAO airport designator
Station Type Date Time Source
SBCG METAR 2020/06/05 13:00 UTC NOAA

SBCG 051300Z 05012KT 8000 FEW045 BKN100 22/18 Q1019


Station Type Date Time Source
SBCG Decoded METAR 2020/06/05 13:00 UTC NOAA

Campo Grande Aeroporto , Brazil (SBCG) 20-28S 054-40W 567M
Jun 05, 2020 - 09:00 AM EDT / 2020.06.05 1300 UTC
Wind: from the NE (050 degrees) at 14 MPH (12 KT):0
Visibility: 4 mile(s):0
Sky conditions: mostly cloudy
Temperature: 71 F (22 C)
Dew Point: 64 F (18 C)
Relative Humidity: 78%
Pressure (altimeter): 30.09 in. Hg (1019 hPa)
ob: SBCG 051300Z 05012KT 8000 FEW045 BKN100 22/18 Q1019
cycle: 13

Station Type Date Time Source
SBCG TAF 2020/06/05 12:24 UTC NOAA

TAF SBCG 050900Z 0512/0612 12010KT 9999 SCT040 TX28/0518Z TN18/0608Z
BECMG 0520/0522 09008KT CAVOK
BECMG 0602/0604 12005KT 5000 BR SCT003
BECMG 0608/0610 09008KT 9999 SCT030
RMK PEO

Example: see airport list